createdAt,value
2018-08-18T00:00:20.466Z,73.45
2018-08-18T00:02:48.824Z,73.27
2018-08-18T00:05:17.984Z,73.68
2018-08-18T00:07:46.358Z,73.45
2018-08-18T00:10:17.498Z,73.02
2018-08-18T00:12:45.786Z,73.84
2018-08-18T00:15:14.092Z,73.48
2018-08-18T00:17:42.429Z,73.34
2018-08-18T00:20:14.106Z,73.01
2018-08-18T00:22:42.404Z,73.23
2018-08-18T00:25:10.680Z,73.93
2018-08-18T00:27:39.023Z,73.15
2018-08-18T00:30:14.461Z,73.12
2018-08-18T00:32:42.731Z,73.05
2018-08-18T00:35:11.337Z,73.68
2018-08-18T00:37:39.638Z,73.90
2018-08-18T00:40:09.030Z,74.51
2018-08-18T00:42:37.530Z,75.12
2018-08-18T00:45:07.339Z,75.30
2018-08-18T00:47:35.650Z,75.36
2018-08-18T00:50:04.300Z,75.13
2018-08-18T00:52:32.678Z,75.93
2018-08-18T00:55:00.994Z,75.93
2018-08-18T00:57:30.393Z,75.81
2018-08-18T01:00:06.402Z,75.52
2018-08-18T01:02:34.790Z,76.08
2018-08-18T01:05:03.411Z,76.65
2018-08-18T01:07:32.691Z,76.27
2018-08-18T01:10:01.408Z,76.05
2018-08-18T01:12:29.872Z,75.25
2018-08-18T01:14:58.532Z,75.19
2018-08-18T01:17:26.959Z,75.17
2018-08-18T01:19:56.770Z,74.91
2018-08-18T01:22:25.074Z,75.49
2018-08-18T01:24:53.786Z,75.18
2018-08-18T01:27:22.458Z,75.10
2018-08-18T01:30:00.817Z,75.02
2018-08-18T01:32:31.015Z,76.05
2018-08-18T01:34:59.305Z,75.94
2018-08-18T01:37:27.626Z,76.32
2018-08-18T01:39:56.201Z,76.27
2018-08-18T01:42:24.553Z,76.06
2018-08-18T01:44:53.989Z,76.22
2018-08-18T01:47:22.311Z,75.77
2018-08-18T01:49:50.697Z,76.30
2018-08-18T01:52:22.275Z,75.94
2018-08-18T01:54:50.607Z,76.05
2018-08-18T01:57:19.423Z,76.20
2018-08-18T01:59:48.176Z,76.82
2018-08-18T02:02:18.043Z,76.23
2018-08-18T02:04:46.890Z,76.65
2018-08-18T02:07:25.464Z,76.58
2018-08-18T02:09:54.116Z,76.34
2018-08-18T02:12:22.750Z,76.13
2018-08-18T02:14:51.119Z,77.04
2018-08-18T02:17:30.155Z,77.19
2018-08-18T02:19:58.875Z,76.92
2018-08-18T02:22:27.854Z,77.18
2018-08-18T02:24:56.348Z,77.10
2018-08-18T02:27:24.681Z,76.64
2018-08-18T02:30:05.072Z,76.86
2018-08-18T02:32:35.651Z,76.78
2018-08-18T02:35:04.477Z,76.64
2018-08-18T02:37:32.762Z,77.22
2018-08-18T02:40:01.148Z,77.97
2018-08-18T02:42:29.439Z,78.27
2018-08-18T02:44:57.706Z,77.62
2018-08-18T02:47:26.061Z,77.38
2018-08-18T02:49:55.435Z,77.76
2018-08-18T02:52:26.798Z,78.96
2018-08-18T02:54:58.897Z,78.29
2018-08-18T02:57:35.846Z,78.88
2018-08-18T03:00:06.336Z,78.79
2018-08-18T03:02:34.843Z,79.85
2018-08-18T03:05:03.173Z,78.86
2018-08-18T03:07:38.125Z,78.24
2018-08-18T03:10:15.787Z,78.64
2018-08-18T03:12:44.160Z,79.13
2018-08-18T03:15:16.416Z,78.89
2018-08-18T03:17:44.782Z,78.90
2018-08-18T03:20:13.086Z,78.33
2018-08-18T03:22:41.739Z,78.33
2018-08-18T03:25:10.182Z,77.46
2018-08-18T03:27:38.501Z,77.81
2018-08-18T03:30:06.918Z,78.47
2018-08-18T03:32:35.197Z,77.65
2018-08-18T03:35:03.506Z,77.19
2018-08-18T03:37:32.357Z,77.50
2018-08-18T03:40:00.760Z,77.23
2018-08-18T03:42:34.453Z,76.92
2018-08-18T03:45:03.485Z,76.66
2018-08-18T03:47:31.771Z,76.24
2018-08-18T03:50:00.135Z,76.64
2018-08-18T03:52:28.478Z,77.21
2018-08-18T03:54:56.750Z,77.13
2018-08-18T03:57:30.595Z,77.50
2018-08-18T03:59:59.039Z,76.89
2018-08-18T04:02:27.399Z,76.63
2018-08-18T04:04:59.874Z,76.49
2018-08-18T04:07:28.226Z,75.89
2018-08-18T04:10:00.269Z,77.04
2018-08-18T04:12:28.572Z,76.63
2018-08-18T04:14:56.876Z,76.62
2018-08-18T04:17:31.336Z,77.43
2018-08-18T04:19:59.593Z,77.89
2018-08-18T04:22:27.940Z,77.50
2018-08-18T04:24:57.256Z,77.79
2018-08-18T04:27:36.910Z,77.64
2018-08-18T04:30:07.758Z,76.95
2018-08-18T04:32:55.643Z,77.85
2018-08-18T04:35:25.084Z,77.27
2018-08-18T04:37:54.356Z,76.88
2018-08-18T04:40:23.288Z,76.74
2018-08-18T04:42:51.669Z,77.34
2018-08-18T04:45:22.112Z,77.53
2018-08-18T04:47:50.493Z,76.67
2018-08-18T04:50:18.903Z,76.93
2018-08-18T04:52:47.268Z,76.21
2018-08-18T04:55:16.002Z,77.67
2018-08-18T04:57:44.673Z,77.32
2018-08-18T05:00:14.102Z,76.99
2018-08-18T05:02:47.885Z,77.15
2018-08-18T05:05:16.928Z,76.26
2018-08-18T05:07:48.163Z,76.28
2018-08-18T05:10:18.144Z,77.00
2018-08-18T05:12:46.573Z,76.74
2018-08-18T05:15:15.538Z,77.00
2018-08-18T05:17:43.935Z,76.54
2018-08-18T05:20:16.811Z,76.17
2018-08-18T05:22:48.811Z,76.71
2018-08-18T05:25:18.492Z,76.46
2018-08-18T05:27:47.556Z,75.83
2018-08-18T05:30:16.097Z,75.42
2018-08-18T05:32:44.513Z,74.77
2018-08-18T05:35:13.171Z,74.73
2018-08-18T05:37:41.530Z,74.27
2018-08-18T05:40:10.023Z,74.34
2018-08-18T05:42:38.327Z,73.83
2018-08-18T05:45:21.263Z,73.63
2018-08-18T05:47:50.019Z,73.51
2018-08-18T05:50:18.422Z,73.38
2018-08-18T05:52:46.765Z,73.37
2018-08-18T05:55:15.100Z,73.42
2018-08-18T05:57:43.436Z,72.15
2018-08-18T06:00:24.028Z,72.09
2018-08-18T06:02:58.593Z,72.83
2018-08-18T06:05:29.639Z,72.21
2018-08-18T06:07:58.344Z,71.24
2018-08-18T06:10:26.719Z,70.07
2018-08-18T06:12:55.128Z,71.13
2018-08-18T06:15:23.839Z,70.30
2018-08-18T06:17:52.203Z,69.05
2018-08-18T06:20:20.599Z,68.63
2018-08-18T06:22:48.885Z,68.37
2018-08-18T06:25:17.180Z,68.27
2018-08-18T06:27:45.555Z,68.58
2018-08-18T06:30:13.848Z,67.68
2018-08-18T06:32:42.363Z,67.72
2018-08-18T06:35:11.158Z,66.68
2018-08-18T06:37:41.154Z,65.88
2018-08-18T06:40:09.668Z,64.76
2018-08-18T06:42:41.777Z,64.97
2018-08-18T06:45:12.237Z,64.29
2018-08-18T06:47:41.035Z,64.44
2018-08-18T06:50:11.626Z,64.73
2018-08-18T06:52:40.262Z,60.25
2018-08-18T06:55:11.586Z,61.99
2018-08-18T06:57:47.192Z,58.18
2018-08-18T07:00:17.330Z,59.57
2018-08-18T07:02:45.675Z,57.51
2018-08-18T07:05:15.526Z,56.71
2018-08-18T07:07:44.856Z,57.39
2018-08-18T07:10:25.801Z,59.32
2018-08-18T07:12:55.296Z,55.71
2018-08-18T07:15:25.138Z,57.37
2018-08-18T07:17:53.909Z,55.51
2018-08-18T07:20:22.783Z,55.56
2018-08-18T07:22:51.794Z,55.20
2018-08-18T07:25:20.349Z,55.36
2018-08-18T07:28:52.186Z,54.44
2018-08-18T07:31:20.550Z,55.84
2018-08-18T07:33:48.986Z,55.04
2018-08-18T07:36:17.314Z,55.47
2018-08-18T07:38:45.592Z,52.97
2018-08-18T07:41:14.072Z,53.06
2018-08-18T07:43:42.699Z,51.85
2018-08-18T07:46:11.213Z,52.14
2018-08-18T07:48:39.459Z,51.85
2018-08-18T07:51:07.805Z,53.28
2018-08-18T07:53:36.286Z,49.94
2018-08-18T07:56:04.680Z,49.47
2018-08-18T07:58:33.029Z,48.98
2018-08-18T08:01:01.470Z,51.55
2018-08-18T08:03:29.768Z,51.64
2018-08-18T08:05:58.135Z,50.46
2018-08-18T08:08:34.120Z,49.85
2018-08-18T08:11:07.781Z,50.20
2018-08-18T08:13:36.156Z,49.20
2018-08-18T08:16:04.561Z,48.73
2018-08-18T08:18:32.944Z,48.59
2018-08-18T08:21:01.292Z,50.85
2018-08-18T08:23:29.660Z,49.61
2018-08-18T08:25:58.981Z,47.82
2018-08-18T08:28:27.295Z,47.73
2018-08-18T08:30:55.618Z,47.85
2018-08-18T08:33:34.385Z,49.04
2018-08-18T08:36:03.454Z,49.92
2018-08-18T08:38:43.190Z,49.20
2018-08-18T08:41:12.526Z,47.05
2018-08-18T08:43:40.922Z,48.29
2018-08-18T08:46:09.286Z,47.66
2018-08-18T08:48:37.583Z,48.31
2018-08-18T08:51:06.028Z,48.71
2018-08-18T08:53:34.616Z,48.10
2018-08-18T08:56:03.116Z,47.33
2018-08-18T08:58:31.856Z,48.47
2018-08-18T09:01:00.264Z,48.40
2018-08-18T09:03:28.710Z,47.63
2018-08-18T09:05:57.784Z,48.89
2018-08-18T09:08:26.118Z,47.19
2018-08-18T09:10:54.427Z,47.90
2018-08-18T09:13:22.773Z,47.67
2018-08-18T09:15:51.130Z,47.75
2018-08-18T09:18:19.938Z,47.43
2018-08-18T09:20:48.269Z,46.58
2018-08-18T09:23:16.574Z,46.70
2018-08-18T09:25:44.891Z,46.29
2018-08-18T09:28:13.195Z,47.57
2018-08-18T09:30:41.496Z,45.52
2018-08-18T09:33:09.794Z,47.00
2018-08-18T09:35:54.456Z,47.61
2018-08-18T09:38:22.924Z,47.95
2018-08-18T09:40:51.347Z,46.39
2018-08-18T09:43:24.814Z,45.44
2018-08-18T09:45:54.444Z,46.48
2018-08-18T09:48:23.519Z,45.74
2018-08-18T09:50:52.003Z,45.39
2018-08-18T09:53:20.351Z,44.84
2018-08-18T09:55:48.826Z,45.98
2018-08-18T09:58:17.681Z,47.53
2018-08-18T10:00:46.054Z,44.46
2018-08-18T10:03:14.458Z,45.66
2018-08-18T10:05:42.840Z,45.66
2018-08-18T10:08:11.147Z,45.88
2018-08-18T10:10:39.454Z,44.88
2018-08-18T10:13:07.869Z,44.26
2018-08-18T10:15:36.410Z,44.29
2018-08-18T10:18:04.832Z,44.03
2018-08-18T10:20:41.266Z,44.48
2018-08-18T10:23:10.507Z,44.68
2018-08-18T10:25:38.792Z,45.49
2018-08-18T10:28:17.812Z,44.19
2018-08-18T10:30:46.114Z,44.67
2018-08-18T10:33:14.554Z,44.43
2018-08-18T10:35:43.802Z,43.90
2018-08-18T10:38:12.231Z,44.81
2018-08-18T10:40:40.523Z,43.89
2018-08-18T10:43:08.915Z,44.34
2018-08-18T10:45:37.206Z,45.12
2018-08-18T10:48:05.866Z,45.06
2018-08-18T10:50:46.030Z,43.92
2018-08-18T10:53:14.360Z,44.65
2018-08-18T10:55:42.702Z,43.58
2018-08-18T10:58:11.267Z,43.85
2018-08-18T11:00:39.634Z,42.80
2018-08-18T11:03:08.836Z,43.64
2018-08-18T11:05:37.495Z,43.32
2018-08-18T11:08:08.057Z,43.77
2018-08-18T11:10:38.626Z,41.98
2018-08-18T11:13:07.118Z,43.18
2018-08-18T11:15:36.307Z,43.14
2018-08-18T11:18:04.638Z,42.14
2018-08-18T11:20:34.209Z,41.24
2018-08-18T11:23:14.611Z,42.34
2018-08-18T11:25:46.102Z,41.26
2018-08-18T11:28:15.038Z,40.21
2018-08-18T11:30:43.543Z,41.49
2018-08-18T11:33:14.554Z,41.38
2018-08-18T11:35:44.135Z,41.10
2018-08-18T11:41:42.149Z,39.55
2018-08-18T11:44:10.726Z,39.70
2018-08-18T11:46:43.604Z,39.90
2018-08-18T11:49:11.935Z,39.19
2018-08-18T11:51:42.043Z,39.45
2018-08-18T11:54:10.353Z,39.44
2018-08-18T11:56:44.181Z,40.21
2018-08-18T11:59:13.896Z,39.10
2018-08-18T12:01:43.368Z,38.77
2018-08-18T12:04:11.807Z,39.36
2018-08-18T12:06:47.251Z,38.78
2018-08-18T12:09:15.810Z,38.41
2018-08-18T12:11:44.125Z,38.71
2018-08-18T12:14:12.592Z,38.25
2018-08-18T12:16:47.693Z,37.03
2018-08-18T12:19:16.056Z,38.83
2018-08-18T12:21:45.485Z,38.59
2018-08-18T12:24:15.359Z,37.87
2018-08-18T12:26:57.090Z,38.94
2018-08-18T12:29:25.686Z,39.08
2018-08-18T12:31:53.997Z,38.54
2018-08-18T12:34:22.305Z,40.71
2018-08-18T12:36:50.735Z,39.92
2018-08-18T12:39:18.982Z,39.69
2018-08-18T12:41:47.605Z,39.72
2018-08-18T12:44:17.018Z,39.38
2018-08-18T12:46:49.439Z,39.57
2018-08-18T12:49:17.736Z,38.35
2018-08-18T12:51:46.140Z,38.07
2018-08-18T12:54:14.445Z,39.64
2018-08-18T12:56:44.350Z,38.50
2018-08-18T12:59:13.041Z,39.11
2018-08-18T13:01:44.019Z,39.49
2018-08-18T13:04:13.868Z,39.50
2018-08-18T13:06:45.410Z,40.36
2018-08-18T13:09:17.709Z,38.50
2018-08-18T13:11:47.494Z,38.87
2018-08-18T13:14:18.729Z,39.72
2018-08-18T13:16:47.317Z,38.76
2018-08-18T13:19:17.878Z,38.10
2018-08-18T13:21:46.127Z,38.72
2018-08-18T13:24:14.687Z,38.44
2018-08-18T13:26:42.985Z,38.79
2018-08-18T13:29:11.457Z,39.11
2018-08-18T13:31:40.771Z,38.56
2018-08-18T13:34:10.734Z,38.82
2018-08-18T13:36:40.781Z,38.65
2018-08-18T13:39:12.284Z,37.65
2018-08-18T13:41:40.845Z,35.62
2018-08-18T13:44:09.125Z,36.80
2018-08-18T13:46:47.035Z,36.05
2018-08-18T13:49:18.206Z,34.85
2018-08-18T13:51:46.593Z,34.80
2018-08-18T13:54:14.961Z,34.46
2018-08-18T13:56:43.655Z,35.59
2018-08-18T13:59:11.927Z,34.38
2018-08-18T14:01:44.588Z,34.66
2018-08-18T14:04:20.292Z,35.29
2018-08-18T14:06:55.493Z,36.11
2018-08-18T14:09:23.958Z,35.39
2018-08-18T14:11:58.096Z,34.82
2018-08-18T14:14:26.435Z,34.01
2018-08-18T14:16:54.890Z,33.61
2018-08-18T14:19:23.137Z,33.10
2018-08-18T14:22:06.626Z,32.89
2018-08-18T14:24:36.096Z,34.04
2018-08-18T14:27:05.789Z,34.60
2018-08-18T14:29:34.636Z,33.89
2018-08-18T14:32:06.090Z,33.90
2018-08-18T14:34:34.385Z,32.90
2018-08-18T14:37:12.118Z,32.18
2018-08-18T14:39:41.889Z,33.11
2018-08-18T14:42:10.443Z,33.88
2018-08-18T14:44:39.010Z,33.29
2018-08-18T14:47:07.702Z,32.92
2018-08-18T14:49:36.474Z,32.57
2018-08-18T14:52:04.877Z,32.36
2018-08-18T14:54:33.488Z,31.35
2018-08-18T14:57:03.167Z,31.93
2018-08-18T14:59:32.560Z,32.38
2018-08-18T15:02:02.396Z,33.95
2018-08-18T15:04:30.767Z,32.46
2018-08-18T15:06:59.090Z,33.08
2018-08-18T15:09:37.879Z,32.21
2018-08-18T15:12:06.371Z,31.63
2018-08-18T15:14:34.679Z,32.39
2018-08-18T15:17:03.089Z,31.94
2018-08-18T15:19:31.410Z,32.18
2018-08-18T15:22:00.387Z,31.12
2018-08-18T15:24:28.734Z,30.64
2018-08-18T15:26:57.133Z,33.46
2018-08-18T15:29:25.588Z,32.02
2018-08-18T15:31:55.570Z,31.94
2018-08-18T15:34:23.929Z,31.19
2018-08-18T15:36:52.385Z,32.83
2018-08-18T15:39:21.314Z,32.09
2018-08-18T15:41:49.755Z,32.59
2018-08-18T15:44:18.091Z,32.37
2018-08-18T15:46:52.922Z,32.50
2018-08-18T15:49:21.386Z,32.40
2018-08-18T15:51:50.627Z,32.31
2018-08-18T15:54:18.977Z,31.84
2018-08-18T15:56:47.293Z,31.65
2018-08-18T15:59:15.617Z,32.43
2018-08-18T16:01:43.938Z,31.63
2018-08-18T16:04:12.385Z,32.75
2018-08-18T16:06:40.728Z,32.24
2018-08-18T16:09:09.418Z,31.26
2018-08-18T16:11:37.740Z,31.64
2018-08-18T16:14:06.232Z,31.97
2018-08-18T16:16:52.295Z,32.21
2018-08-18T16:19:20.680Z,32.76
2018-08-18T16:21:50.342Z,32.42
2018-08-18T16:24:30.844Z,31.88
2018-08-18T16:27:02.129Z,32.88
2018-08-18T16:29:30.638Z,32.11
2018-08-18T16:32:14.698Z,32.54
2018-08-18T16:34:44.768Z,32.77
2018-08-18T16:37:13.527Z,31.99
2018-08-18T16:39:42.854Z,32.00
2018-08-18T16:42:12.393Z,32.70
2018-08-18T16:44:41.562Z,31.95
2018-08-18T16:47:10.417Z,31.75
2018-08-18T16:49:38.995Z,32.76
2018-08-18T16:52:14.070Z,32.79
2018-08-18T16:54:42.436Z,31.95
2018-08-18T16:57:10.918Z,33.32
2018-08-18T16:59:39.396Z,32.63
2018-08-18T17:02:14.738Z,33.01
2018-08-18T17:04:43.461Z,32.07
2018-08-18T17:07:16.983Z,32.35
2018-08-18T17:09:45.346Z,32.68
2018-08-18T17:12:16.865Z,33.20
2018-08-18T17:14:45.612Z,33.11
2018-08-18T17:17:14.365Z,31.89
2018-08-18T17:19:42.693Z,32.56
2018-08-18T17:25:01.301Z,33.55
2018-08-18T17:27:30.777Z,33.63
2018-08-18T17:30:01.266Z,32.39
2018-08-18T17:32:29.983Z,34.36
2018-08-18T17:34:58.583Z,33.10
2018-08-18T17:37:26.900Z,33.82
2018-08-18T17:39:55.407Z,34.29
2018-08-18T17:42:23.714Z,34.09
2018-08-18T17:44:52.142Z,34.36
2018-08-18T17:47:20.658Z,35.86
2018-08-18T17:49:56.719Z,37.03
2018-08-18T17:52:25.290Z,36.91
2018-08-18T17:55:04.962Z,37.84
2018-08-18T17:57:33.344Z,37.88
2018-08-18T18:00:07.247Z,39.05
2018-08-18T18:02:42.009Z,39.51
2018-08-18T18:05:10.326Z,39.73
2018-08-18T18:07:38.872Z,40.17
2018-08-18T18:10:07.256Z,40.47
2018-08-18T18:12:36.021Z,40.55
2018-08-18T18:15:46.209Z,42.40
2018-08-18T18:18:17.325Z,42.60
2018-08-18T18:20:49.614Z,42.71
2018-08-18T18:23:18.603Z,43.29
2018-08-18T18:25:46.919Z,42.36
2018-08-18T18:28:15.196Z,42.42
2018-08-18T18:30:43.505Z,41.59
2018-08-18T18:33:12.109Z,43.27
2018-08-18T18:35:40.616Z,42.41
2018-08-18T18:38:08.986Z,41.64
2018-08-18T18:40:41.571Z,40.72
2018-08-18T18:43:09.945Z,40.99
2018-08-18T18:45:38.416Z,41.63
2018-08-18T18:48:07.861Z,42.31
2018-08-18T18:50:39.047Z,41.63
2018-08-18T18:53:07.377Z,41.44
2018-08-18T18:55:41.498Z,40.31
2018-08-18T18:58:13.191Z,42.84
2018-08-18T19:00:45.753Z,40.95
2018-08-18T19:03:14.236Z,42.53
2018-08-18T19:05:47.193Z,42.08
2018-08-18T19:08:18.335Z,40.74
2018-08-18T19:10:47.098Z,40.79
2018-08-18T19:13:15.523Z,40.65
2018-08-18T19:15:44.382Z,41.03
2018-08-18T19:18:13.513Z,40.61
2018-08-18T19:20:41.866Z,41.67
2018-08-18T19:23:15.405Z,41.73
2018-08-18T19:25:44.938Z,41.65
2018-08-18T19:28:16.287Z,40.95
2018-08-18T19:30:44.556Z,41.14
2018-08-18T19:33:14.356Z,41.91
2018-08-18T19:35:44.909Z,41.42
2018-08-18T19:38:13.663Z,41.74
2018-08-18T19:40:43.308Z,42.73
2018-08-18T19:43:15.713Z,42.08
2018-08-18T19:45:44.130Z,42.76
2018-08-18T19:48:14.975Z,43.19
2018-08-18T19:50:52.468Z,43.38
2018-08-18T19:53:30.263Z,43.46
2018-08-18T19:55:59.656Z,44.19
2018-08-18T19:58:28.615Z,45.16
2018-08-18T20:00:56.954Z,44.70
2018-08-18T20:03:25.854Z,45.22
2018-08-18T20:05:54.396Z,45.64
2018-08-18T20:08:24.219Z,44.99
2018-08-18T20:10:57.493Z,46.12
2018-08-18T20:13:27.514Z,46.86
2018-08-18T20:15:57.152Z,47.25
2018-08-18T20:18:25.742Z,46.74
2018-08-18T20:20:56.201Z,47.29
2018-08-18T20:23:24.810Z,47.46
2018-08-18T20:25:53.109Z,47.57
2018-08-18T20:28:22.695Z,47.91
2018-08-18T20:30:51.881Z,47.27
2018-08-18T20:33:20.300Z,46.66
2018-08-18T20:35:48.728Z,46.43
2018-08-18T20:38:17.219Z,46.74
2018-08-18T20:40:45.944Z,47.95
2018-08-18T20:43:14.264Z,48.28
2018-08-18T20:45:46.699Z,48.98
2018-08-18T20:48:19.618Z,49.67
2018-08-18T20:50:48.055Z,50.18
2018-08-18T20:53:17.262Z,50.60
2018-08-18T20:55:50.514Z,51.59
2018-08-18T20:58:18.945Z,52.47
2018-08-18T21:00:47.263Z,51.75
2018-08-18T21:03:15.649Z,52.70
2018-08-18T21:05:43.938Z,53.26
2018-08-18T21:08:16.878Z,53.89
2018-08-18T21:10:45.574Z,53.35
2018-08-18T21:13:15.397Z,54.60
2018-08-18T21:15:43.799Z,54.75
2018-08-18T21:18:19.147Z,54.38
2018-08-18T21:20:48.501Z,55.43
2018-08-18T21:23:17.964Z,55.53
2018-08-18T21:25:48.966Z,56.11
2018-08-18T21:28:18.650Z,56.03
2018-08-18T21:30:47.475Z,57.02
2018-08-18T21:33:15.888Z,57.42
2018-08-18T21:35:44.432Z,56.83
2018-08-18T21:38:12.971Z,56.79
2018-08-18T21:40:41.573Z,56.50
2018-08-18T21:43:21.175Z,55.91
2018-08-18T21:45:50.806Z,55.75
2018-08-18T21:48:19.168Z,56.36
2018-08-18T21:50:47.688Z,56.19
2018-08-18T21:53:16.420Z,56.43
2018-08-18T21:55:44.997Z,57.66
2018-08-18T21:58:13.399Z,58.34
2018-08-18T22:00:46.958Z,58.45
2018-08-18T22:03:15.874Z,58.59
2018-08-18T22:05:45.134Z,58.51
2018-08-18T22:08:13.703Z,58.59
2018-08-18T22:10:52.175Z,58.67
2018-08-18T22:13:21.248Z,58.79
2018-08-18T22:15:50.894Z,59.24
2018-08-18T22:18:20.061Z,59.53
2018-08-18T22:20:48.658Z,59.92
2018-08-18T22:23:17.242Z,60.92
2018-08-18T22:25:46.117Z,60.50
2018-08-18T22:28:14.602Z,60.70
2018-08-18T22:30:43.570Z,60.23
2018-08-18T22:33:12.283Z,60.77
2018-08-18T22:35:45.007Z,61.30
2018-08-18T22:38:13.550Z,60.95
2018-08-18T22:40:41.875Z,61.50
2018-08-18T22:43:10.339Z,61.50
2018-08-18T22:45:38.642Z,62.00
2018-08-18T22:48:07.728Z,62.02
2018-08-18T22:50:36.195Z,61.30
2018-08-18T22:53:04.563Z,61.55
2018-08-18T22:55:32.825Z,61.62
2018-08-18T22:58:02.874Z,63.23
2018-08-18T23:00:33.933Z,63.54
2018-08-18T23:03:02.246Z,64.01
2018-08-18T23:05:30.531Z,63.19
2018-08-18T23:07:58.950Z,63.16
2018-08-18T23:10:30.713Z,62.42
2018-08-18T23:12:59.527Z,62.85
2018-08-18T23:15:27.832Z,63.32
2018-08-18T23:17:56.279Z,65.19
2018-08-18T23:20:24.722Z,64.57
2018-08-18T23:22:59.965Z,64.80
2018-08-18T23:25:31.615Z,64.48
2018-08-18T23:28:00.095Z,65.44
2018-08-18T23:30:36.839Z,64.74
2018-08-18T23:33:07.211Z,64.33
2018-08-18T23:35:35.931Z,64.13
2018-08-18T23:38:04.438Z,64.38
2018-08-18T23:40:32.824Z,64.42
2018-08-18T23:43:01.157Z,64.20
2018-08-18T23:45:38.638Z,65.38
2018-08-18T23:48:10.006Z,65.54
2018-08-18T23:50:39.419Z,65.39
2018-08-18T23:53:11.747Z,65.10
2018-08-18T23:55:44.997Z,65.10
2018-08-18T23:58:13.738Z,65.37
